Time;durP1;ratioP1;P1;durP2;ratioP2;P2;SDS_P1;SDS_P2;PMS_P1;PMS_P2;Temp;Humidity;BMP_temperature;BMP_pressure;BME280_temperature;BME280_humidity;BME280_pressure;Samples;Min_cycle;Max_cycle;Signal;HPM_P1;HPM_P2
2023/05/10 00:02:14;;;;;;;10.05;9.07;;;;;;;;;;5283782;28;20269;-68
2023/05/10 00:04:45;;;;;;;9.93;8.93;;;;;;;;;;5283123;28;20027;-68
2023/05/10 00:07:17;;;;;;;9.68;8.73;;;;;;;;;;5283219;28;20259;-68
2023/05/10 00:09:48;;;;;;;9.70;8.88;;;;;;;;;;5283267;28;20278;-68
2023/05/10 00:12:19;;;;;;;10.52;9.57;;;;;;;;;;5283684;28;20016;-68
2023/05/10 00:14:50;;;;;;;11.77;10.60;;;;;;;;;;5281935;28;20302;-68
2023/05/10 00:17:22;;;;;;;11.02;9.80;;;;;;;;;;5283584;28;20017;-68
2023/05/10 00:19:53;;;;;;;11.73;10.63;;;;;;;;;;5281218;28;20281;-68
2023/05/10 00:22:24;;;;;;;11.73;10.63;;;;;;;;;;5283072;28;20046;-68
2023/05/10 00:24:55;;;;;;;10.93;9.82;;;;;;;;;;5282857;28;20781;-68
2023/05/10 00:27:26;;;;;;;10.73;9.73;;;;;;;;;;5282578;28;20020;-69
2023/05/10 00:29:58;;;;;;;11.90;10.80;;;;;;;;;;5282936;28;20263;-68
2023/05/10 00:32:29;;;;;;;12.02;10.82;;;;;;;;;;5283388;28;20009;-68
2023/05/10 00:35:00;;;;;;;11.38;10.38;;;;;;;;;;5281926;28;20039;-68
2023/05/10 00:37:31;;;;;;;13.55;12.27;;;;;;;;;;5282799;28;20027;-68
2023/05/10 00:40:02;;;;;;;12.70;11.50;;;;;;;;;;5282636;28;20446;-68
2023/05/10 00:42:33;;;;;;;13.23;11.93;;;;;;;;;;5282143;28;20599;-68
2023/05/10 00:45:05;;;;;;;13.07;11.77;;;;;;;;;;5282764;28;20028;-68
2023/05/10 00:47:36;;;;;;;15.73;12.32;;;;;;;;;;5282808;28;20073;-68
2023/05/10 00:50:08;;;;;;;16.98;15.23;;;;;;;;;;5281782;28;20021;-68
2023/05/10 00:52:40;;;;;;;17.35;15.70;;;;;;;;;;5282415;28;20024;-69
2023/05/10 00:55:12;;;;;;;17.40;15.63;;;;;;;;;;5282179;28;20032;-68
2023/05/10 00:57:43;;;;;;;17.42;15.68;;;;;;;;;;5282108;28;20037;-68
2023/05/10 01:00:17;;;;;;;18.35;16.60;;;;;;;;;;5282562;28;20066;-68
2023/05/10 01:02:49;;;;;;;19.58;17.58;;;;;;;;;;5281223;28;20091;-68
2023/05/10 01:05:21;;;;;;;20.52;18.50;;;;;;;;;;5282579;28;20055;-68
2023/05/10 01:07:52;;;;;;;20.65;18.60;;;;;;;;;;5282047;28;20025;-68
2023/05/10 01:10:23;;;;;;;21.23;19.05;;;;;;;;;;5281689;28;20103;-68
2023/05/10 01:12:55;;;;;;;23.25;19.17;;;;;;;;;;5281801;28;20040;-67
2023/05/10 01:15:26;;;;;;;22.70;20.35;;;;;;;;;;5282172;28;20067;-67
2023/05/10 01:17:57;;;;;;;26.13;23.35;;;;;;;;;;5280979;28;20047;-68
2023/05/10 01:20:32;;;;;;;29.50;24.45;;;;;;;;;;5282244;28;20052;-67
2023/05/10 01:23:18;;;;;;;28.70;24.85;;;;;;;;;;5281109;28;20103;-67
2023/05/10 01:26:15;;;;;;;31.80;26.88;;;;;;;;;;5281407;28;20493;-67
2023/05/10 01:29:01;;;;;;;29.80;25.60;;;;;;;;;;5281453;28;20023;-68
2023/05/10 01:31:58;;;;;;;28.80;25.15;;;;;;;;;;5280754;28;20024;-67
2023/05/10 01:34:42;;;;;;;31.17;26.85;;;;;;;;;;5281657;28;20028;-67
2023/05/10 01:37:16;;;;;;;33.25;28.50;;;;;;;;;;5281308;28;20031;-67
2023/05/10 01:39:54;;;;;;;33.47;27.42;;;;;;;;;;5281582;28;20095;-67
2023/05/10 01:42:28;;;;;;;32.42;26.73;;;;;;;;;;5282119;28;20127;-67
2023/05/10 01:45:02;;;;;;;35.60;28.83;;;;;;;;;;5280859;28;20023;-67
2023/05/10 01:47:43;;;;;;;35.65;30.15;;;;;;;;;;5281784;28;20043;-67
2023/05/10 01:50:20;;;;;;;35.15;29.67;;;;;;;;;;5281920;28;20048;-67
2023/05/10 01:52:54;;;;;;;35.13;29.38;;;;;;;;;;5280488;28;20021;-67
2023/05/10 01:55:28;;;;;;;33.55;28.85;;;;;;;;;;5282055;28;20029;-67
2023/05/10 01:58:05;;;;;;;35.97;29.45;;;;;;;;;;5281316;28;20131;-67
2023/05/10 02:00:37;;;;;;;35.95;29.27;;;;;;;;;;5281643;28;20025;-67
2023/05/10 02:03:09;;;;;;;34.05;28.85;;;;;;;;;;5281508;28;20387;-67
2023/05/10 02:05:41;;;;;;;35.30;29.42;;;;;;;;;;5280584;28;20037;-67
2023/05/10 02:08:13;;;;;;;33.65;28.65;;;;;;;;;;5281879;28;20025;-67
2023/05/10 02:10:45;;;;;;;36.15;31.50;;;;;;;;;;5281068;28;20116;-67
2023/05/10 02:13:17;;;;;;;36.88;32.15;;;;;;;;;;5280890;28;20012;-67
2023/05/10 02:15:50;;;;;;;46.08;36.30;;;;;;;;;;5280776;28;20479;-67
2023/05/10 02:18:22;;;;;;;46.92;37.35;;;;;;;;;;5281717;28;20040;-67
2023/05/10 02:20:54;;;;;;;49.60;40.28;;;;;;;;;;5280290;28;20028;-67
2023/05/10 02:23:26;;;;;;;49.45;41.70;;;;;;;;;;5281669;28;20021;-66
2023/05/10 02:25:57;;;;;;;46.70;40.40;;;;;;;;;;5280885;28;20050;-66
2023/05/10 02:28:29;;;;;;;50.97;41.40;;;;;;;;;;5280728;28;20017;-67
2023/05/10 02:31:01;;;;;;;47.67;40.58;;;;;;;;;;5281154;28;20097;-67
2023/05/10 02:33:33;;;;;;;51.40;42.75;;;;;;;;;;5280617;28;20774;-67
2023/05/10 02:36:05;;;;;;;50.38;43.50;;;;;;;;;;5281077;28;20033;-67
2023/05/10 02:38:36;;;;;;;49.22;41.30;;;;;;;;;;5280987;28;20055;-67
2023/05/10 02:41:08;;;;;;;51.85;43.20;;;;;;;;;;5280498;28;20055;-67
2023/05/10 02:43:40;;;;;;;51.20;42.47;;;;;;;;;;5281938;28;20051;-67
2023/05/10 02:46:11;;;;;;;50.08;42.95;;;;;;;;;;5285030;28;20016;-67
2023/05/10 02:48:42;;;;;;;47.25;41.85;;;;;;;;;;5283775;28;20547;-67
2023/05/10 02:51:17;;;;;;;45.17;40.22;;;;;;;;;;5285088;28;20028;-67
2023/05/10 02:53:49;;;;;;;44.35;38.78;;;;;;;;;;5284543;28;20348;-67
2023/05/10 02:56:25;;;;;;;47.90;41.85;;;;;;;;;;5284027;28;20093;-67
2023/05/10 02:58:56;;;;;;;45.65;39.58;;;;;;;;;;5284429;28;20426;-67
2023/05/10 03:01:27;;;;;;;46.90;40.08;;;;;;;;;;5284130;28;20029;-67
2023/05/10 03:03:58;;;;;;;44.15;39.35;;;;;;;;;;5284256;28;20102;-67
2023/05/10 03:06:30;;;;;;;46.10;38.80;;;;;;;;;;5284416;28;20107;-67
2023/05/10 03:09:02;;;;;;;44.17;39.40;;;;;;;;;;5283601;28;20251;-66
2023/05/10 03:11:33;;;;;;;47.63;38.72;;;;;;;;;;5284555;28;20016;-67
2023/05/10 03:14:10;;;;;;;40.65;36.30;;;;;;;;;;5284166;28;20108;-67
2023/05/10 03:16:56;;;;;;;41.10;36.60;;;;;;;;;;5283050;28;20097;-67
2023/05/10 03:19:32;;;;;;;38.40;34.28;;;;;;;;;;5284514;28;20025;-67
2023/05/10 03:22:04;;;;;;;37.97;33.92;;;;;;;;;;5284276;28;20394;-67
2023/05/10 03:24:36;;;;;;;39.58;34.63;;;;;;;;;;5283425;28;20028;-67
2023/05/10 03:27:07;;;;;;;36.63;32.22;;;;;;;;;;5284363;28;20096;-67
2023/05/10 03:29:39;;;;;;;39.65;33.05;;;;;;;;;;5283144;28;20036;-67
2023/05/10 03:32:10;;;;;;;35.97;31.30;;;;;;;;;;5284814;28;20016;-67
2023/05/10 03:34:43;;;;;;;35.95;31.48;;;;;;;;;;5283785;28;20032;-67
2023/05/10 03:37:14;;;;;;;35.38;31.13;;;;;;;;;;5283793;28;20119;-67
2023/05/10 03:39:45;;;;;;;34.73;30.97;;;;;;;;;;5284065;28;20036;-68
2023/05/10 03:42:17;;;;;;;33.80;29.37;;;;;;;;;;5284658;28;20266;-68
2023/05/10 03:44:49;;;;;;;38.03;31.85;;;;;;;;;;5282712;28;20270;-67
2023/05/10 03:47:20;;;;;;;35.30;29.75;;;;;;;;;;5284059;28;20143;-67
2023/05/10 03:49:52;;;;;;;35.83;31.30;;;;;;;;;;5283476;28;20107;-67
2023/05/10 03:52:23;;;;;;;35.50;31.30;;;;;;;;;;5283172;28;20024;-68
2023/05/10 03:54:54;;;;;;;39.92;31.75;;;;;;;;;;5283177;28;20761;-68
2023/05/10 03:57:26;;;;;;;38.03;30.80;;;;;;;;;;5283840;28;20896;-67
2023/05/10 03:59:57;;;;;;;37.40;32.67;;;;;;;;;;5282393;28;20270;-68
2023/05/10 04:02:30;;;;;;;40.35;32.55;;;;;;;;;;5283709;28;20431;-68
2023/05/10 04:05:01;;;;;;;40.90;33.78;;;;;;;;;;5282714;28;20027;-68
2023/05/10 04:07:32;;;;;;;42.33;33.28;;;;;;;;;;5283434;28;20008;-68
2023/05/10 04:10:03;;;;;;;46.85;35.70;;;;;;;;;;5283277;28;20070;-67
2023/05/10 04:12:35;;;;;;;47.55;38.25;;;;;;;;;;5282455;28;20258;-68
2023/05/10 04:15:06;;;;;;;56.28;41.83;;;;;;;;;;5283239;28;20029;-68
2023/05/10 04:17:37;;;;;;;60.08;43.53;;;;;;;;;;5282778;28;20012;-68
2023/05/10 04:20:09;;;;;;;62.45;45.53;;;;;;;;;;5282498;28;20078;-67
2023/05/10 04:22:40;;;;;;;66.10;49.60;;;;;;;;;;5282545;28;20075;-67
2023/05/10 04:25:11;;;;;;;64.88;48.35;;;;;;;;;;5283287;28;20024;-68
2023/05/10 04:27:43;;;;;;;61.30;45.40;;;;;;;;;;5281938;28;20025;-68
2023/05/10 04:30:14;;;;;;;56.03;40.38;;;;;;;;;;5283269;28;20115;-68
2023/05/10 04:32:45;;;;;;;53.30;40.00;;;;;;;;;;5281881;28;20024;-68
2023/05/10 04:35:16;;;;;;;43.80;33.60;;;;;;;;;;5282594;28;20471;-68
2023/05/10 04:37:47;;;;;;;39.83;32.00;;;;;;;;;;5282539;28;20755;-68
2023/05/10 04:40:19;;;;;;;37.15;29.23;;;;;;;;;;5282306;28;20020;-68
2023/05/10 04:42:50;;;;;;;36.42;29.08;;;;;;;;;;5282094;28;20013;-68
2023/05/10 04:45:22;;;;;;;37.40;28.73;;;;;;;;;;5282838;28;20375;-69
2023/05/10 04:47:53;;;;;;;32.95;26.63;;;;;;;;;;5281370;28;20346;-68
2023/05/10 04:50:24;;;;;;;27.50;23.02;;;;;;;;;;5282984;28;20017;-68
2023/05/10 04:52:55;;;;;;;31.67;24.70;;;;;;;;;;5282080;28;20035;-68
2023/05/10 04:55:26;;;;;;;26.63;23.33;;;;;;;;;;5282015;28;20105;-68
2023/05/10 04:57:58;;;;;;;30.42;24.13;;;;;;;;;;5282001;28;20052;-69
2023/05/10 05:00:30;;;;;;;26.15;22.23;;;;;;;;;;5282253;28;20040;-69
2023/05/10 05:03:01;;;;;;;24.85;21.42;;;;;;;;;;5281612;28;20017;-68
2023/05/10 05:05:32;;;;;;;27.92;22.30;;;;;;;;;;5282208;28;20275;-68
2023/05/10 05:08:03;;;;;;;24.42;20.35;;;;;;;;;;5280955;28;20059;-68
2023/05/10 05:10:34;;;;;;;25.15;21.45;;;;;;;;;;5282076;28;20016;-68
2023/05/10 05:13:06;;;;;;;22.00;19.80;;;;;;;;;;5282129;28;20377;-69
2023/05/10 05:15:37;;;;;;;24.98;22.33;;;;;;;;;;5281269;28;20339;-69
2023/05/10 05:18:08;;;;;;;25.02;20.88;;;;;;;;;;5282029;28;20104;-68
2023/05/10 05:20:39;;;;;;;24.52;20.90;;;;;;;;;;5281628;28;20024;-69
2023/05/10 05:23:10;;;;;;;24.27;19.83;;;;;;;;;;5281423;28;20373;-68
2023/05/10 05:25:42;;;;;;;24.85;22.20;;;;;;;;;;5281861;28;20013;-69
2023/05/10 05:28:13;;;;;;;23.83;21.27;;;;;;;;;;5282393;28;20069;-69
2023/05/10 05:30:44;;;;;;;22.90;20.23;;;;;;;;;;5280858;28;20051;-68
2023/05/10 05:33:15;;;;;;;23.52;21.05;;;;;;;;;;5282199;28;20021;-68
2023/05/10 05:35:50;;;;;;;23.40;20.87;;;;;;;;;;5281249;28;20032;-68
2023/05/10 05:38:21;;;;;;;23.00;20.52;;;;;;;;;;5281509;28;20270;-68
2023/05/10 05:40:52;;;;;;;23.88;20.73;;;;;;;;;;5281615;28;20042;-68
2023/05/10 05:43:24;;;;;;;23.83;21.20;;;;;;;;;;5281490;28;20278;-68
2023/05/10 05:45:57;;;;;;;22.67;20.05;;;;;;;;;;5281563;28;20387;-68
2023/05/10 05:48:29;;;;;;;22.67;20.13;;;;;;;;;;5281823;28;20024;-68
2023/05/10 05:51:01;;;;;;;23.10;20.05;;;;;;;;;;5280850;28;20106;-69
2023/05/10 05:53:33;;;;;;;23.33;20.45;;;;;;;;;;5281546;28;20048;-68
2023/05/10 05:56:04;;;;;;;22.35;19.85;;;;;;;;;;5281626;28;20111;-68
2023/05/10 05:58:35;;;;;;;27.02;20.67;;;;;;;;;;5280567;28;20162;-68
2023/05/10 06:01:07;;;;;;;21.58;19.27;;;;;;;;;;5281699;28;20017;-68
2023/05/10 06:03:38;;;;;;;23.77;21.27;;;;;;;;;;5281104;28;20270;-68
2023/05/10 06:06:09;;;;;;;22.80;20.42;;;;;;;;;;5281029;28;20464;-68
2023/05/10 06:08:40;;;;;;;27.90;22.50;;;;;;;;;;5280901;28;20750;-68
2023/05/10 06:11:12;;;;;;;23.67;21.23;;;;;;;;;;5281433;28;20609;-68
2023/05/10 06:13:43;;;;;;;24.60;20.23;;;;;;;;;;5280720;28;20020;-67
2023/05/10 06:16:14;;;;;;;23.35;21.02;;;;;;;;;;5281686;28;20328;-67
2023/05/10 06:18:45;;;;;;;25.95;22.95;;;;;;;;;;5281410;28;20048;-68
2023/05/10 06:21:16;;;;;;;22.80;20.27;;;;;;;;;;5285819;28;20266;-68
2023/05/10 06:23:47;;;;;;;23.80;21.23;;;;;;;;;;5284973;28;20267;-68
2023/05/10 06:26:20;;;;;;;26.15;23.25;;;;;;;;;;5284710;28;20263;-68
2023/05/10 06:28:51;;;;;;;25.17;22.55;;;;;;;;;;5285147;28;20070;-68
2023/05/10 06:31:23;;;;;;;25.90;23.13;;;;;;;;;;5285591;28;20024;-68
2023/05/10 06:33:54;;;;;;;23.58;21.13;;;;;;;;;;5284082;28;20532;-68
2023/05/10 06:36:26;;;;;;;24.98;22.13;;;;;;;;;;5285383;28;20130;-68
2023/05/10 06:38:57;;;;;;;26.58;21.65;;;;;;;;;;5284795;28;20259;-68
2023/05/10 06:41:28;;;;;;;27.25;23.77;;;;;;;;;;5284659;28;20029;-68
2023/05/10 06:43:59;;;;;;;28.88;24.55;;;;;;;;;;5284869;28;20024;-67
2023/05/10 06:46:31;;;;;;;25.00;22.37;;;;;;;;;;5284009;28;20119;-68
2023/05/10 06:49:02;;;;;;;26.10;23.23;;;;;;;;;;5284939;28;20266;-69
2023/05/10 06:51:33;;;;;;;28.95;23.90;;;;;;;;;;5284568;28;20024;-68
2023/05/10 06:54:04;;;;;;;24.77;22.08;;;;;;;;;;5283913;28;20475;-68
2023/05/10 06:56:35;;;;;;;28.63;24.33;;;;;;;;;;5284622;28;20057;-68
2023/05/10 06:59:07;;;;;;;27.27;23.27;;;;;;;;;;5284851;28;20686;-69
2023/05/10 07:01:38;;;;;;;27.13;22.00;;;;;;;;;;5283694;28;20316;-69
2023/05/10 07:04:09;;;;;;;24.88;22.15;;;;;;;;;;5285140;28;20016;-69
2023/05/10 07:06:40;;;;;;;25.38;22.65;;;;;;;;;;5284420;28;20266;-68
2023/05/10 07:09:13;;;;;;;23.60;21.17;;;;;;;;;;5284274;28;20048;-68
2023/05/10 07:11:44;;;;;;;23.98;21.42;;;;;;;;;;5284024;28;20618;-68
2023/05/10 07:14:15;;;;;;;23.88;21.20;;;;;;;;;;5284815;28;20020;-68
2023/05/10 07:16:47;;;;;;;23.15;20.55;;;;;;;;;;5283461;28;20043;-69
2023/05/10 07:19:18;;;;;;;23.42;20.38;;;;;;;;;;5284884;28;20324;-68
2023/05/10 07:21:50;;;;;;;20.38;17.77;;;;;;;;;;5283198;28;20025;-69
2023/05/10 07:24:21;;;;;;;18.02;16.08;;;;;;;;;;5283781;28;20077;-68
2023/05/10 07:26:52;;;;;;;19.38;17.42;;;;;;;;;;5284047;28;20404;-68
2023/05/10 07:29:23;;;;;;;22.17;16.80;;;;;;;;;;5283044;28;20511;-68
2023/05/10 07:31:54;;;;;;;17.75;15.32;;;;;;;;;;5283763;28;20107;-68
2023/05/10 07:34:25;;;;;;;20.25;14.25;;;;;;;;;;5272757;28;20064;-67
2023/05/10 07:37:00;;;;;;;15.90;13.98;;;;;;;;;;5275678;28;20301;-68
2023/05/10 07:39:31;;;;;;;17.58;13.38;;;;;;;;;;5278536;28;20020;-67
2023/05/10 07:42:02;;;;;;;17.95;12.23;;;;;;;;;;5281609;28;20425;-68
2023/05/10 07:44:33;;;;;;;13.65;10.45;;;;;;;;;;5281538;28;20020;-69
2023/05/10 07:47:05;;;;;;;13.77;11.17;;;;;;;;;;5282642;28;20021;-69
2023/05/10 07:49:36;;;;;;;11.48;10.23;;;;;;;;;;5281850;28;20266;-69
2023/05/10 07:52:07;;;;;;;9.75;8.75;;;;;;;;;;5280834;28;20017;-69
2023/05/10 07:54:38;;;;;;;10.40;9.30;;;;;;;;;;5282718;28;20047;-68
2023/05/10 07:57:09;;;;;;;11.30;8.70;;;;;;;;;;5282099;28;20106;-67
2023/05/10 07:59:41;;;;;;;9.70;8.20;;;;;;;;;;5281868;28;20016;-67
2023/05/10 08:02:13;;;;;;;10.75;7.97;;;;;;;;;;5281938;28;20274;-68
2023/05/10 08:04:44;;;;;;;8.60;7.75;;;;;;;;;;5282206;28;20422;-69
2023/05/10 08:07:15;;;;;;;9.90;7.10;;;;;;;;;;5283615;28;20100;-70
2023/05/10 08:09:46;;;;;;;9.30;7.60;;;;;;;;;;5281225;28;20271;-69
2023/05/10 08:12:17;;;;;;;10.83;7.93;;;;;;;;;;5280822;28;20183;-70
2023/05/10 08:14:49;;;;;;;8.88;7.45;;;;;;;;;;5281965;28;20294;-70
2023/05/10 08:17:20;;;;;;;7.93;6.77;;;;;;;;;;5283412;28;20265;-70
2023/05/10 08:19:51;;;;;;;9.20;7.15;;;;;;;;;;5281939;28;20340;-70
2023/05/10 08:22:22;;;;;;;8.90;7.05;;;;;;;;;;5283205;28;20383;-70
2023/05/10 08:24:53;;;;;;;9.27;6.97;;;;;;;;;;5282183;28;20641;-70
2023/05/10 08:27:24;;;;;;;7.20;6.50;;;;;;;;;;5283377;28;20259;-70
2023/05/10 08:29:56;;;;;;;10.03;6.43;;;;;;;;;;5282147;28;20310;-69
2023/05/10 08:32:27;;;;;;;9.03;5.43;;;;;;;;;;5280182;28;20262;-72
2023/05/10 08:34:58;;;;;;;6.80;5.27;;;;;;;;;;5280110;28;20364;-70
2023/05/10 08:37:29;;;;;;;5.63;4.78;;;;;;;;;;5280713;28;20270;-70
2023/05/10 08:40:01;;;;;;;7.40;4.50;;;;;;;;;;5280151;28;20398;-70
2023/05/10 08:42:34;;;;;;;9.93;4.70;;;;;;;;;;5280115;28;20499;-70
2023/05/10 08:45:07;;;;;;;5.53;4.03;;;;;;;;;;5281005;28;20063;-70
2023/05/10 08:47:38;;;;;;;6.50;3.95;;;;;;;;;;5281593;28;20012;-70
2023/05/10 08:50:10;;;;;;;7.25;3.47;;;;;;;;;;5282943;28;20023;-70
2023/05/10 08:52:41;;;;;;;3.97;2.85;;;;;;;;;;5282239;28;20070;-70
2023/05/10 08:55:13;;;;;;;2.83;2.25;;;;;;;;;;5281512;28;20036;-68
2023/05/10 08:57:44;;;;;;;3.00;2.05;;;;;;;;;;5281656;28;20411;-69
2023/05/10 09:00:16;;;;;;;4.28;2.53;;;;;;;;;;5281932;28;20019;-69
2023/05/10 09:02:49;;;;;;;3.10;1.77;;;;;;;;;;5282276;28;20363;-70
2023/05/10 09:05:20;;;;;;;4.43;1.75;;;;;;;;;;5282584;28;20028;-70
2023/05/10 09:07:52;;;;;;;2.70;1.70;;;;;;;;;;5281329;28;20025;-69
2023/05/10 09:10:25;;;;;;;4.65;1.70;;;;;;;;;;5282008;28;20100;-68
2023/05/10 09:12:57;;;;;;;2.10;1.05;;;;;;;;;;5282016;28;20397;-69
2023/05/10 09:15:28;;;;;;;2.53;1.20;;;;;;;;;;5281748;28;20032;-69
2023/05/10 09:18:02;;;;;;;1.97;0.97;;;;;;;;;;5281944;28;20035;-69
2023/05/10 09:20:33;;;;;;;4.90;2.08;;;;;;;;;;5281925;28;20349;-69
2023/05/10 09:23:04;;;;;;;3.83;1.67;;;;;;;;;;5280930;28;20519;-69
2023/05/10 09:25:38;;;;;;;2.80;1.40;;;;;;;;;;5282104;28;20270;-69
2023/05/10 09:28:10;;;;;;;2.92;1.60;;;;;;;;;;5281644;28;20132;-70
2023/05/10 09:30:42;;;;;;;2.95;2.30;;;;;;;;;;5281474;28;20025;-69
2023/05/10 09:33:13;;;;;;;4.88;1.88;;;;;;;;;;5281953;28;20040;-69
2023/05/10 09:35:45;;;;;;;4.15;1.98;;;;;;;;;;5280377;28;20067;-71
2023/05/10 09:38:16;;;;;;;2.28;1.60;;;;;;;;;;5282137;28;20059;-70
2023/05/10 09:40:54;;;;;;;2.25;1.55;;;;;;;;;;5281305;28;20027;-71
2023/05/10 09:43:25;;;;;;;3.13;1.58;;;;;;;;;;5281075;28;20028;-70
2023/05/10 09:45:56;;;;;;;3.13;2.22;;;;;;;;;;5281054;28;20021;-70
2023/05/10 09:48:27;;;;;;;3.33;1.87;;;;;;;;;;5282009;28;20404;-71
2023/05/10 09:50:59;;;;;;;3.28;1.90;;;;;;;;;;5280534;28;20279;-70
2023/05/10 09:53:30;;;;;;;3.17;1.52;;;;;;;;;;5281304;28;20021;-70
2023/05/10 09:56:01;;;;;;;3.50;1.20;;;;;;;;;;5280752;28;20044;-70
2023/05/10 09:58:36;;;;;;;2.57;0.93;;;;;;;;;;5280505;28;20298;-69
2023/05/10 10:01:10;;;;;;;2.58;1.15;;;;;;;;;;5281379;28;20320;-70
2023/05/10 10:03:43;;;;;;;2.33;1.08;;;;;;;;;;5280368;28;20013;-70
2023/05/10 10:06:18;;;;;;;2.00;0.88;;;;;;;;;;5281362;28;20009;-70
2023/05/10 10:08:50;;;;;;;4.35;1.45;;;;;;;;;;5280896;28;20459;-70
2023/05/10 10:11:22;;;;;;;2.38;1.08;;;;;;;;;;5280631;28;20023;-71
2023/05/10 10:13:54;;;;;;;3.28;1.30;;;;;;;;;;5281001;28;20089;-70
2023/05/10 10:16:26;;;;;;;2.42;1.38;;;;;;;;;;5282115;28;20028;-70
2023/05/10 10:18:58;;;;;;;3.83;1.10;;;;;;;;;;5280092;28;20024;-70
2023/05/10 10:21:29;;;;;;;2.75;1.27;;;;;;;;;;5281394;28;20028;-70
2023/05/10 10:24:00;;;;;;;2.78;2.20;;;;;;;;;;5281110;28;20095;-70
2023/05/10 10:26:36;;;;;;;4.40;2.80;;;;;;;;;;5280284;28;20021;-71
2023/05/10 10:29:15;;;;;;;2.80;1.73;;;;;;;;;;5281042;28;20051;-70
2023/05/10 10:31:55;;;;;;;2.50;1.90;;;;;;;;;;5279942;28;20016;-69
2023/05/10 10:34:30;;;;;;;3.63;1.95;;;;;;;;;;5281599;28;20028;-70
2023/05/10 10:37:06;;;;;;;3.92;1.90;;;;;;;;;;5280962;28;20111;-70
2023/05/10 10:39:37;;;;;;;2.67;1.98;;;;;;;;;;5280364;28;20036;-70
2023/05/10 10:42:08;;;;;;;3.87;2.30;;;;;;;;;;5281152;28;20043;-70
2023/05/10 10:44:40;;;;;;;3.92;3.00;;;;;;;;;;5280820;28;20263;-70
2023/05/10 10:47:11;;;;;;;2.88;2.15;;;;;;;;;;5280653;28;20040;-69
2023/05/10 10:49:47;;;;;;;5.22;3.30;;;;;;;;;;5280614;28;20020;-70
2023/05/10 10:52:33;;;;;;;3.55;3.25;;;;;;;;;;5281050;28;20426;-69
2023/05/10 10:55:05;;;;;;;5.53;3.60;;;;;;;;;;5280665;28;20124;-70
2023/05/10 10:57:44;;;;;;;3.67;3.17;;;;;;;;;;5280619;28;20551;-70
2023/05/10 11:00:24;;;;;;;4.13;3.53;;;;;;;;;;5279891;28;20531;-70
2023/05/10 11:03:08;;;;;;;3.05;2.75;;;;;;;;;;5280476;28;20025;-70
2023/05/10 11:05:40;;;;;;;3.67;3.38;;;;;;;;;;5281814;28;20040;-70
2023/05/10 11:08:28;;;;;;;3.63;2.80;;;;;;;;;;5283898;28;20020;-70
2023/05/10 11:10:59;;;;;;;3.20;2.88;;;;;;;;;;5284078;28;20493;-70
2023/05/10 11:13:44;;;;;;;5.30;2.75;;;;;;;;;;5284500;28;20024;-70
2023/05/10 11:16:18;;;;;;;3.60;3.28;;;;;;;;;;5284338;28;20028;-69
2023/05/10 11:19:03;;;;;;;4.35;2.90;;;;;;;;;;5283935;28;20035;-70
2023/05/10 11:21:44;;;;;;;5.35;4.57;;;;;;;;;;5282622;28;20048;-70
2023/05/10 11:24:16;;;;;;;4.30;3.60;;;;;;;;;;5284429;28;20118;-71
2023/05/10 11:26:51;;;;;;;5.32;3.75;;;;;;;;;;5284273;28;20460;-69
2023/05/10 11:29:22;;;;;;;5.32;4.43;;;;;;;;;;5283206;28;20024;-70
2023/05/10 11:31:56;;;;;;;4.45;3.53;;;;;;;;;;5283822;28;20016;-70
2023/05/10 11:34:35;;;;;;;2.72;2.13;;;;;;;;;;5283885;28;20024;-70
2023/05/10 11:37:06;;;;;;;2.17;1.85;;;;;;;;;;5283284;28;20021;-70
2023/05/10 11:39:37;;;;;;;2.80;1.85;;;;;;;;;;5283772;28;20036;-71
2023/05/10 11:42:11;;;;;;;3.30;1.95;;;;;;;;;;5283063;28;20366;-71
2023/05/10 11:44:44;;;;;;;3.38;2.00;;;;;;;;;;5282835;28;20420;-70
2023/05/10 11:47:15;;;;;;;3.50;2.92;;;;;;;;;;5284499;28;20028;-72
2023/05/10 11:49:48;;;;;;;4.55;4.03;;;;;;;;;;5282269;28;20024;-71
2023/05/10 11:52:20;;;;;;;4.07;3.72;;;;;;;;;;5283482;28;20029;-71
2023/05/10 11:54:51;;;;;;;5.90;3.78;;;;;;;;;;5282255;28;20032;-73
2023/05/10 11:57:26;;;;;;;4.90;3.22;;;;;;;;;;5283107;28;20044;-73
2023/05/10 11:59:58;;;;;;;6.85;4.10;;;;;;;;;;5283057;28;20186;-72
2023/05/10 12:02:29;;;;;;;6.90;4.20;;;;;;;;;;5283343;28;20095;-71
2023/05/10 12:05:01;;;;;;;6.10;5.22;;;;;;;;;;5282430;28;20489;-71
2023/05/10 12:07:33;;;;;;;5.57;5.07;;;;;;;;;;5283127;28;20427;-71
2023/05/10 12:10:07;;;;;;;6.53;5.90;;;;;;;;;;5282488;28;20016;-70
2023/05/10 12:12:41;;;;;;;6.90;6.30;;;;;;;;;;5282848;28;20021;-70
2023/05/10 12:15:18;;;;;;;7.40;6.65;;;;;;;;;;5283288;28;20457;-69
2023/05/10 12:17:49;;;;;;;8.82;6.85;;;;;;;;;;5282008;28;20432;-69
2023/05/10 12:20:21;;;;;;;5.40;4.75;;;;;;;;;;5283394;28;20116;-69
2023/05/10 12:22:56;;;;;;;4.60;4.20;;;;;;;;;;5282698;28;20048;-69
2023/05/10 12:25:35;;;;;;;4.60;3.00;;;;;;;;;;5282504;28;20028;-69
2023/05/10 12:28:07;;;;;;;3.00;2.33;;;;;;;;;;5282773;28;20020;-69
2023/05/10 12:30:38;;;;;;;2.90;2.42;;;;;;;;;;5282489;28;20028;-70
2023/05/10 12:33:11;;;;;;;2.40;1.73;;;;;;;;;;5282457;28;20373;-71
2023/05/10 12:35:50;;;;;;;1.98;1.65;;;;;;;;;;5282307;28;20056;-71
2023/05/10 12:38:29;;;;;;;2.58;2.38;;;;;;;;;;5282106;28;20131;-69
2023/05/10 12:41:00;;;;;;;;;;;;;;;;;;5282750;28;20036;-70
2023/05/10 12:43:31;;;;;;;3.38;2.63;;;;;;;;;;5282628;28;19974;-70
2023/05/10 12:46:06;;;;;;;4.47;3.72;;;;;;;;;;5281947;28;20036;-70
2023/05/10 12:48:38;;;;;;;4.25;3.85;;;;;;;;;;5282164;28;20035;-69
2023/05/10 12:51:12;;;;;;;5.97;3.63;;;;;;;;;;5282511;28;20020;-69
2023/05/10 12:53:45;;;;;;;5.30;4.80;;;;;;;;;;5281402;28;20099;-69
2023/05/10 12:56:16;;;;;;;6.82;6.00;;;;;;;;;;5282291;28;20116;-69
2023/05/10 12:58:47;;;;;;;6.00;5.50;;;;;;;;;;5281903;28;20120;-69
2023/05/10 13:01:19;;;;;;;7.80;7.05;;;;;;;;;;5281888;28;20766;-70
2023/05/10 13:03:50;;;;;;;7.72;7.05;;;;;;;;;;5281789;28;20093;-70
2023/05/10 13:06:21;;;;;;;8.48;7.70;;;;;;;;;;5282023;28;20012;-70
2023/05/10 13:08:52;;;;;;;9.30;8.50;;;;;;;;;;5281914;28;20031;-70
2023/05/10 13:11:23;;;;;;;9.47;8.63;;;;;;;;;;5282564;28;20032;-69
2023/05/10 13:13:56;;;;;;;9.93;8.93;;;;;;;;;;5280968;28;20366;-69
2023/05/10 13:16:27;;;;;;;10.88;9.90;;;;;;;;;;5282049;28;20033;-69
2023/05/10 13:18:58;;;;;;;11.63;10.63;;;;;;;;;;5281653;28;20039;-69
2023/05/10 13:21:30;;;;;;;11.93;10.82;;;;;;;;;;5280907;28;20291;-70
2023/05/10 13:24:01;;;;;;;12.10;10.98;;;;;;;;;;5281866;28;20273;-70
2023/05/10 13:26:33;;;;;;;11.70;10.80;;;;;;;;;;5281869;28;20025;-70
2023/05/10 13:29:04;;;;;;;13.07;11.88;;;;;;;;;;5281065;28;20020;-70
2023/05/10 13:31:35;;;;;;;12.73;11.53;;;;;;;;;;5281892;28;20104;-69
2023/05/10 13:34:06;;;;;;;12.93;11.77;;;;;;;;;;5282014;28;20270;-70
2023/05/10 13:36:38;;;;;;;13.85;12.55;;;;;;;;;;5280784;28;20116;-70
2023/05/10 13:39:09;;;;;;;11.77;10.68;;;;;;;;;;5281957;28;20361;-69
2023/05/10 13:41:40;;;;;;;13.90;12.60;;;;;;;;;;5280680;28;20044;-69
2023/05/10 13:44:12;;;;;;;11.98;10.98;;;;;;;;;;5282061;28;20649;-69
2023/05/10 13:46:44;;;;;;;10.88;9.93;;;;;;;;;;5281504;28;20095;-70
2023/05/10 13:49:15;;;;;;;11.38;10.20;;;;;;;;;;5281296;28;20119;-70
2023/05/10 13:51:46;;;;;;;9.25;8.25;;;;;;;;;;5281181;28;20021;-71
2023/05/10 13:54:19;;;;;;;7.90;7.13;;;;;;;;;;5282059;28;20467;-71
2023/05/10 13:56:50;;;;;;;8.10;6.88;;;;;;;;;;5280636;28;20063;-70
2023/05/10 13:59:22;;;;;;;8.23;7.20;;;;;;;;;;5282067;28;20017;-71
2023/05/10 14:01:53;;;;;;;7.82;7.03;;;;;;;;;;5281398;28;20051;-70
2023/05/10 14:04:24;;;;;;;7.10;6.43;;;;;;;;;;5281166;28;20012;-70
2023/05/10 14:06:56;;;;;;;7.85;6.93;;;;;;;;;;5281001;28;20324;-69
2023/05/10 14:09:27;;;;;;;9.50;7.22;;;;;;;;;;5281668;28;20016;-70
2023/05/10 14:11:58;;;;;;;7.70;6.80;;;;;;;;;;5280663;28;20048;-70
2023/05/10 14:14:29;;;;;;;8.13;7.28;;;;;;;;;;5281375;28;20020;-70
2023/05/10 14:17:01;;;;;;;9.07;7.45;;;;;;;;;;5280988;28;20021;-71
2023/05/10 14:19:33;;;;;;;7.72;7.00;;;;;;;;;;5281622;28;20017;-71
2023/05/10 14:22:04;;;;;;;8.48;7.68;;;;;;;;;;5281605;28;20095;-70
2023/05/10 14:24:36;;;;;;;8.77;7.45;;;;;;;;;;5280622;28;20100;-71
2023/05/10 14:27:07;;;;;;;9.25;8.35;;;;;;;;;;5281235;28;20261;-72
2023/05/10 14:29:38;;;;;;;10.35;8.45;;;;;;;;;;5281342;28;20081;-72
2023/05/10 14:32:10;;;;;;;10.85;7.95;;;;;;;;;;5280945;28;20021;-71
2023/05/10 14:34:41;;;;;;;10.90;9.13;;;;;;;;;;5280924;28;20028;-71
2023/05/10 14:37:13;;;;;;;9.73;8.73;;;;;;;;;;5281447;28;20025;-70
2023/05/10 14:39:44;;;;;;;10.70;9.50;;;;;;;;;;5280971;28;20722;-70
2023/05/10 14:42:15;;;;;;;11.40;10.17;;;;;;;;;;5285568;28;20031;-70
2023/05/10 14:44:46;;;;;;;10.80;9.75;;;;;;;;;;5284061;28;20259;-70
2023/05/10 14:47:17;;;;;;;11.38;9.90;;;;;;;;;;5285354;28;20266;-70
2023/05/10 14:49:49;;;;;;;11.35;10.10;;;;;;;;;;5284599;28;20263;-71
2023/05/10 14:52:20;;;;;;;13.13;9.63;;;;;;;;;;5284420;28;20026;-71
2023/05/10 14:54:51;;;;;;;11.30;10.30;;;;;;;;;;5284238;28;20324;-71
2023/05/10 14:57:22;;;;;;;10.80;9.75;;;;;;;;;;5281450;28;20534;-69
2023/05/10 14:59:53;;;;;;;11.25;10.18;;;;;;;;;;5283701;28;20016;-70